Auburndale, Wisconsin
Current Conditions -  °F | °C
As of 10:54 PM on Monday 26 Jan 2015 (Local Time) from KMFI Reporting Station
Haze Haze  
Wind Chill: 23°   Ceiling: 400
Heat Index: 23°   Visibility: 4mi
Dew Point: 21°   Wind: 3mph
Humidity: 92%   Direction: 60°ENE
Pressure: 29.89"   Gusts: NA
Location:  44.63°N, 90.01°W
Report Text: KMFI 270454Z AUTO 06003KT 4SM BR OVC004 M05/M06 A2989 RMK AO2 SLP145 T10501061
Loading
Personal Weather Stations






























Interactive Weather Map New forecast layout! Learn more

10-Day Weather Forecast

Advertisements
Track Severe Weather on mobile